Time;durP1;ratioP1;P1;durP2;ratioP2;P2;SDS_P1;SDS_P2;PMS_P1;PMS_P2;Temp;Humidity;BMP_temperature;BMP_pressure;BME280_temperature;BME280_humidity;BME280_pressure;Samples;Min_cycle;Max_cycle;Signal;HPM_P1;HPM_P2
2022/05/31 00:00:36;;;;;;;4.15;1.58;;;14.30;57.90;;;;;;5040026;28;20040;-66
2022/05/31 00:03:04;;;;;;;3.35;1.50;;;14.30;58.10;;;;;;5019324;28;20483;-66
2022/05/31 00:05:30;;;;;;;4.45;1.70;;;14.20;58.20;;;;;;5017038;28;20036;-66
2022/05/31 00:07:55;;;;;;;3.70;1.40;;;14.20;58.60;;;;;;5023755;28;20028;-66
2022/05/31 00:10:22;;;;;;;4.38;1.80;;;14.20;59.00;;;;;;5011658;28;20029;-66
2022/05/31 00:12:48;;;;;;;4.38;1.50;;;14.10;59.00;;;;;;5039112;28;20071;-66
2022/05/31 00:15:15;;;;;;;4.97;1.55;;;14.10;59.50;;;;;;5015445;28;20049;-66
2022/05/31 00:17:41;;;;;;;3.65;1.40;;;14.10;59.80;;;;;;5019545;28;20473;-67
2022/05/31 00:20:10;;;;;;;3.75;1.50;;;14.00;59.90;;;;;;5019368;28;20033;-66
2022/05/31 00:22:37;;;;;;;4.15;1.60;;;14.00;60.10;;;;;;5028564;28;20026;-66
2022/05/31 00:25:05;;;;;;;3.38;1.60;;;14.00;60.00;;;;;;5023051;28;20061;-66
2022/05/31 00:27:30;;;;;;;3.10;1.40;;;14.00;61.10;;;;;;5027059;28;20522;-66
2022/05/31 00:29:56;;;;;;;4.50;1.60;;;13.90;60.20;;;;;;5021306;28;20030;-66
2022/05/31 00:32:28;;;;;;;2.85;1.50;;;13.90;60.30;;;;;;5021974;28;20088;-66
2022/05/31 00:34:56;;;;;;;3.35;1.60;;;13.80;60.10;;;;;;5013344;28;20100;-66
2022/05/31 00:37:22;;;;;;;3.85;1.60;;;13.80;59.90;;;;;;5016055;28;20456;-66
2022/05/31 00:39:48;;;;;;;6.50;1.80;;;13.80;60.00;;;;;;5014585;28;20481;-66
2022/05/31 00:42:17;;;;;;;5.15;1.77;;;13.80;60.00;;;;;;5020133;28;20029;-66
2022/05/31 00:44:43;;;;;;;3.72;1.65;;;13.80;60.20;;;;;;5026640;28;20043;-66
2022/05/31 00:47:27;;;;;;;4.97;1.60;;;13.70;60.00;;;;;;5023996;28;20034;-66
2022/05/31 00:49:58;;;;;;;3.30;1.55;;;13.70;59.80;;;;;;5025176;28;20155;-66
2022/05/31 00:52:29;;;;;;;6.32;1.70;;;13.70;59.80;;;;;;5015560;28;20033;-66
2022/05/31 00:55:09;;;;;;;3.40;1.60;;;13.60;59.60;;;;;;5029580;28;20057;-67
2022/05/31 00:57:38;;;;;;;5.10;1.90;;;13.60;60.00;;;;;;5025825;28;20068;-66
2022/05/31 01:00:12;;;;;;;2.75;1.40;;;13.60;60.20;;;;;;5015742;28;20500;-66
2022/05/31 01:02:40;;;;;;;3.83;1.70;;;13.60;60.20;;;;;;5028217;28;20140;-66
2022/05/31 01:05:07;;;;;;;3.38;1.70;;;13.50;60.20;;;;;;5022587;28;20049;-66
2022/05/31 01:07:33;;;;;;;4.78;1.77;;;13.50;60.30;;;;;;5016645;28;20393;-66
2022/05/31 01:09:58;;;;;;;6.55;1.80;;;13.40;60.40;;;;;;5014538;28;20025;-66
2022/05/31 01:12:26;;;;;;;3.33;1.70;;;13.40;60.40;;;;;;5024099;28;20053;-67
2022/05/31 01:14:52;;;;;;;4.72;1.67;;;13.40;60.60;;;;;;5025796;28;20490;-66
2022/05/31 01:17:20;;;;;;;3.97;1.67;;;13.40;60.90;;;;;;5023050;28;20037;-67
2022/05/31 01:19:56;;;;;;;4.05;1.80;;;13.40;60.80;;;;;;5024478;28;20039;-66
2022/05/31 01:22:50;;;;;;;4.45;1.83;;;13.30;61.00;;;;;;5024340;28;20492;-66
2022/05/31 01:25:24;;;;;;;3.85;1.63;;;13.40;61.50;;;;;;5023566;28;20390;-66
2022/05/31 01:28:13;;;;;;;3.40;1.65;;;13.40;61.70;;;;;;5019208;28;20030;-67
2022/05/31 01:31:12;;;;;;;3.47;1.52;;;13.40;61.90;;;;;;5019714;28;20029;-66
2022/05/31 01:33:45;;;;;;;3.25;1.70;;;13.40;62.10;;;;;;5030748;28;20029;-66
2022/05/31 01:36:20;;;;;;;4.50;1.80;;;13.40;62.60;;;;;;5011669;28;20393;-66
2022/05/31 01:39:00;;;;;;;4.25;1.88;;;13.30;62.70;;;;;;5014293;28;20033;-66
2022/05/31 01:41:32;;;;;;;4.43;1.90;;;13.30;62.60;;;;;;5022043;28;20045;-66
2022/05/31 01:44:01;;;;;;;3.70;1.80;;;13.30;62.70;;;;;;5031519;28;20021;-66
2022/05/31 01:46:31;;;;;;;3.60;1.85;;;13.30;62.90;;;;;;5014765;28;20032;-66
2022/05/31 01:48:59;;;;;;;4.80;2.00;;;13.30;62.90;;;;;;5020796;28;20119;-66
2022/05/31 01:51:26;;;;;;;4.15;1.90;;;13.40;62.90;;;;;;5014750;28;20057;-66
2022/05/31 01:53:54;;;;;;;5.63;1.95;;;13.40;62.80;;;;;;5017815;28;20038;-66
2022/05/31 01:56:21;;;;;;;3.88;1.90;;;13.40;62.90;;;;;;5017907;28;20030;-66
2022/05/31 01:58:49;;;;;;;3.72;1.90;;;13.40;62.90;;;;;;5013289;28;20118;-66
2022/05/31 02:01:15;;;;;;;5.97;2.10;;;13.40;63.00;;;;;;5021231;28;20404;-66
2022/05/31 02:03:44;;;;;;;5.63;1.80;;;13.40;63.10;;;;;;5024765;28;20663;-66
2022/05/31 02:06:35;;;;;;;3.72;1.85;;;13.50;63.00;;;;;;5027820;28;20045;-66
2022/05/31 02:09:02;;;;;;;3.95;2.15;;;13.50;63.20;;;;;;5014385;28;20121;-66
2022/05/31 02:11:29;;;;;;;3.95;2.10;;;13.50;63.20;;;;;;5024145;28;20040;-66
2022/05/31 02:13:54;;;;;;;5.38;2.00;;;13.50;63.40;;;;;;5010601;28;20025;-66
2022/05/31 02:16:20;;;;;;;3.65;2.15;;;13.40;63.40;;;;;;5011398;28;20036;-66
2022/05/31 02:21:37;;;;;;;3.80;1.98;;;13.40;63.60;;;;;;5025277;28;20060;-66
2022/05/31 02:24:11;;;;;;;3.72;2.10;;;13.30;63.80;;;;;;5018047;28;20029;-66
2022/05/31 02:26:41;;;;;;;4.13;2.30;;;13.30;64.10;;;;;;5012630;28;20080;-66
2022/05/31 02:29:08;;;;;;;5.53;2.05;;;13.30;64.00;;;;;;5015611;28;20032;-67
2022/05/31 02:31:34;;;;;;;4.75;2.10;;;13.30;63.90;;;;;;5024682;28;20116;-66
2022/05/31 02:34:00;;;;;;;5.85;2.08;;;13.30;64.20;;;;;;5027074;28;20161;-66
2022/05/31 02:36:27;;;;;;;6.88;2.30;;;13.30;64.40;;;;;;5016473;28;20509;-67
2022/05/31 02:38:53;;;;;;;3.42;1.75;;;13.20;64.50;;;;;;5017907;28;20022;-66
2022/05/31 02:41:19;;;;;;;6.05;2.00;;;13.20;64.60;;;;;;5017519;28;20022;-66
2022/05/31 02:43:45;;;;;;;3.85;2.00;;;13.20;64.30;;;;;;5014357;28;20485;-66
2022/05/31 02:46:11;;;;;;;4.57;2.08;;;13.20;64.10;;;;;;5018186;28;20018;-66
2022/05/31 02:48:37;;;;;;;3.90;2.00;;;13.10;64.00;;;;;;5018340;28;20048;-66
2022/05/31 02:51:03;;;;;;;4.05;1.90;;;13.10;63.90;;;;;;5011564;28;20030;-66
2022/05/31 02:53:29;;;;;;;3.85;2.10;;;13.00;63.70;;;;;;5014381;28;20025;-66
2022/05/31 02:55:58;;;;;;;7.18;2.20;;;13.00;63.70;;;;;;5012984;28;20046;-66
2022/05/31 02:58:25;;;;;;;4.30;2.00;;;13.00;63.80;;;;;;5032188;28;20022;-67
2022/05/31 03:00:51;;;;;;;5.28;2.47;;;12.90;63.80;;;;;;5018287;28;20042;-66
2022/05/31 03:03:17;;;;;;;6.45;2.30;;;12.80;63.90;;;;;;5013482;28;20033;-67
2022/05/31 03:05:42;;;;;;;4.00;2.03;;;12.80;64.30;;;;;;5011802;28;20033;-66
2022/05/31 03:08:08;;;;;;;3.83;2.20;;;12.80;64.40;;;;;;5018926;28;20030;-66
2022/05/31 03:10:38;;;;;;;3.63;2.17;;;12.80;64.20;;;;;;5019664;28;20891;-66
2022/05/31 03:13:04;;;;;;;4.07;2.10;;;12.70;64.30;;;;;;5011439;28;20038;-66
2022/05/31 03:15:33;;;;;;;4.20;2.20;;;12.70;64.50;;;;;;5011829;28;20124;-66
2022/05/31 03:18:21;;;;;;;5.28;2.53;;;12.70;64.90;;;;;;5026393;28;20107;-66
2022/05/31 03:20:50;;;;;;;6.95;2.50;;;12.70;65.10;;;;;;5016155;28;20022;-67
2022/05/31 03:23:21;;;;;;;5.10;2.40;;;12.70;65.20;;;;;;5022569;28;20163;-67
2022/05/31 03:25:49;;;;;;;4.63;2.28;;;12.60;65.10;;;;;;5013498;28;20057;-66
2022/05/31 03:28:16;;;;;;;5.40;2.53;;;12.60;65.20;;;;;;5036567;28;20108;-66
2022/05/31 03:30:41;;;;;;;6.60;2.40;;;12.60;65.20;;;;;;5025841;28;20040;-66
2022/05/31 03:33:09;;;;;;;6.55;2.60;;;12.60;65.40;;;;;;5014792;28;20029;-66
2022/05/31 03:35:36;;;;;;;5.30;2.35;;;12.60;65.70;;;;;;5015138;28;20037;-66
2022/05/31 03:38:02;;;;;;;3.70;2.38;;;12.60;65.60;;;;;;5014572;28;20423;-66
2022/05/31 03:43:12;;;;;;;5.00;2.40;;;12.50;66.10;;;;;;5012508;28;20059;-66
2022/05/31 03:45:42;;;;;;;6.45;2.47;;;12.50;66.60;;;;;;5021051;28;20467;-66
2022/05/31 03:48:09;;;;;;;3.80;2.20;;;12.50;66.80;;;;;;5031123;28;20033;-67
2022/05/31 03:50:35;;;;;;;6.38;2.70;;;12.50;66.90;;;;;;5015732;28;20033;-67
2022/05/31 03:53:01;;;;;;;8.32;2.63;;;12.50;67.00;;;;;;5015572;28;20048;-66
2022/05/31 03:55:27;;;;;;;5.35;2.38;;;12.50;66.90;;;;;;5025031;28;20062;-66
2022/05/31 03:57:53;;;;;;;3.78;2.13;;;12.50;66.90;;;;;;5029680;28;20032;-66
2022/05/31 04:00:19;;;;;;;4.25;2.10;;;12.50;66.80;;;;;;5024291;28;20034;-66
2022/05/31 04:02:46;;;;;;;4.88;2.30;;;12.40;66.30;;;;;;5020352;28;20026;-66
2022/05/31 04:05:12;;;;;;;3.90;2.30;;;12.40;66.00;;;;;;5018074;28;20080;-67
2022/05/31 04:07:38;;;;;;;4.10;2.28;;;12.40;66.60;;;;;;5024794;28;20029;-67
2022/05/31 04:10:06;;;;;;;6.13;2.17;;;12.30;65.40;;;;;;5018175;28;20057;-66
2022/05/31 04:12:36;;;;;;;7.28;2.30;;;12.30;65.30;;;;;;5019628;28;20400;-66
2022/05/31 04:15:03;;;;;;;4.30;2.08;;;12.20;65.00;;;;;;5027017;28;20041;-67
2022/05/31 04:17:29;;;;;;;4.22;2.50;;;12.20;64.90;;;;;;5011610;28;20045;-66
2022/05/31 04:19:54;;;;;;;5.35;2.60;;;12.20;65.30;;;;;;5022823;28;20029;-67
2022/05/31 04:22:20;;;;;;;5.55;2.30;;;12.20;65.70;;;;;;5026232;28;20029;-67
2022/05/31 04:24:46;;;;;;;7.07;2.35;;;12.20;66.20;;;;;;5027345;28;20029;-66
2022/05/31 04:27:16;;;;;;;43.17;6.68;;;12.20;66.10;;;;;;5015046;28;20045;-68
2022/05/31 04:29:42;;;;;;;12.40;3.40;;;12.10;65.80;;;;;;5026629;28;20403;-67
2022/05/31 04:32:08;;;;;;;5.22;2.53;;;12.10;65.70;;;;;;5030110;28;20029;-67
2022/05/31 04:34:33;;;;;;;6.50;2.50;;;12.10;65.70;;;;;;5025324;28;20029;-68
2022/05/31 04:37:00;;;;;;;5.60;2.58;;;12.00;65.70;;;;;;5036568;28;20116;-67
2022/05/31 04:39:26;;;;;;;6.82;2.40;;;12.10;65.70;;;;;;5026253;28;20025;-67
2022/05/31 04:41:52;;;;;;;3.97;2.30;;;12.10;65.80;;;;;;5029846;28;20034;-67
2022/05/31 04:44:18;;;;;;;4.63;2.50;;;12.10;65.90;;;;;;5019791;28;20028;-68
2022/05/31 04:46:44;;;;;;;5.45;2.80;;;12.00;66.20;;;;;;5021583;28;20511;-68
2022/05/31 04:49:11;;;;;;;5.30;2.92;;;12.10;66.60;;;;;;5025278;28;20539;-68
2022/05/31 04:51:37;;;;;;;5.43;2.55;;;12.10;66.70;;;;;;5029112;28;20432;-68
2022/05/31 04:54:04;;;;;;;8.15;2.60;;;12.10;66.60;;;;;;5021086;28;20056;-68
2022/05/31 04:56:30;;;;;;;4.82;2.70;;;12.10;66.50;;;;;;5023336;28;20107;-68
2022/05/31 04:58:56;;;;;;;9.27;2.85;;;12.10;66.40;;;;;;5020802;28;20404;-69
2022/05/31 05:01:23;;;;;;;7.50;2.90;;;12.20;66.40;;;;;;5016655;28;20021;-68
2022/05/31 05:03:50;;;;;;;12.27;3.08;;;12.20;66.60;;;;;;5030848;28;20029;-68
2022/05/31 05:06:18;;;;;;;11.40;2.80;;;12.20;66.70;;;;;;5031160;28;20032;-68
2022/05/31 05:08:44;;;;;;;8.60;3.13;;;12.30;66.90;;;;;;5018797;28;20041;-67
2022/05/31 05:11:15;;;;;;;7.88;3.00;;;12.30;67.00;;;;;;5016107;28;20025;-69
2022/05/31 05:13:41;;;;;;;5.45;2.80;;;12.40;67.20;;;;;;5019364;28;20041;-68
2022/05/31 05:16:08;;;;;;;4.75;2.60;;;12.40;67.30;;;;;;5019797;28;20068;-67
2022/05/31 05:18:34;;;;;;;7.18;3.58;;;12.40;67.40;;;;;;5030393;28;20064;-67
2022/05/31 05:21:04;;;;;;;5.90;2.90;;;12.50;67.60;;;;;;5022936;28;20087;-67
2022/05/31 05:23:30;;;;;;;6.73;3.20;;;12.50;67.80;;;;;;5024640;28;20181;-68
2022/05/31 05:25:57;;;;;;;6.57;2.95;;;12.60;68.20;;;;;;5024718;28;20467;-68
2022/05/31 05:31:22;;;;;;;7.07;3.63;;;12.70;69.30;;;;;;5043031;28;20036;-68
2022/05/31 05:33:48;;;;;;;4.57;3.03;;;12.70;69.70;;;;;;5025295;28;20480;-67
2022/05/31 05:36:14;;;;;;;5.53;3.17;;;12.80;69.80;;;;;;5015927;28;20625;-67
2022/05/31 05:38:40;;;;;;;6.85;3.35;;;12.80;69.70;;;;;;5025311;28;20021;-68
2022/05/31 05:41:06;;;;;;;6.25;3.45;;;12.90;69.60;;;;;;5024074;28;20037;-69
2022/05/31 05:43:32;;;;;;;8.48;3.50;;;13.00;69.70;;;;;;5012528;28;20176;-69
2022/05/31 05:45:58;;;;;;;6.25;3.30;;;13.10;69.80;;;;;;5011166;28;20022;-69
2022/05/31 05:48:24;;;;;;;7.32;3.53;;;13.20;70.00;;;;;;5027843;28;20026;-69
2022/05/31 05:50:49;;;;;;;6.55;3.40;;;13.30;69.40;;;;;;5030388;28;20052;-68
2022/05/31 05:53:15;;;;;;;5.40;3.45;;;13.50;69.40;;;;;;5023462;28;20029;-69
2022/05/31 05:55:42;;;;;;;10.07;3.80;;;13.60;69.40;;;;;;5024455;28;20046;-69
2022/05/31 05:58:08;;;;;;;8.65;3.88;;;13.70;69.40;;;;;;5024383;28;20104;-69
2022/05/31 06:00:37;;;;;;;6.32;3.58;;;13.80;69.80;;;;;;5018220;28;20170;-69
2022/05/31 06:03:21;;;;;;;6.80;3.40;;;14.00;69.80;;;;;;5015335;28;20033;-69
2022/05/31 06:05:48;;;;;;;12.65;3.75;;;14.20;69.90;;;;;;5013330;28;20026;-69
2022/05/31 06:08:28;;;;;;;8.52;3.80;;;14.30;69.70;;;;;;5013164;28;20024;-69
2022/05/31 06:11:04;;;;;;;6.78;4.03;;;14.50;70.20;;;;;;5030240;28;20830;-69
2022/05/31 06:13:35;;;;;;;8.52;3.97;;;14.70;70.40;;;;;;5026375;28;20053;-69
2022/05/31 06:16:02;;;;;;;9.05;3.72;;;14.90;70.10;;;;;;5011246;28;20444;-69
2022/05/31 06:18:34;;;;;;;8.10;3.85;;;15.00;69.80;;;;;;5025149;28;20075;-69
2022/05/31 06:21:04;;;;;;;7.68;3.88;;;15.20;69.30;;;;;;5027123;28;20444;-69
2022/05/31 06:23:30;;;;;;;5.88;3.75;;;15.50;68.80;;;;;;5023659;28;20108;-69
2022/05/31 06:25:57;;;;;;;6.20;3.55;;;15.70;68.30;;;;;;5016162;28;20630;-69
2022/05/31 06:28:23;;;;;;;8.05;3.33;;;15.90;67.80;;;;;;5017270;28;20033;-69
2022/05/31 06:30:48;;;;;;;10.73;3.67;;;16.20;67.20;;;;;;5026980;28;20804;-68
2022/05/31 06:33:14;;;;;;;7.13;3.90;;;16.40;66.30;;;;;;5038474;28;20064;-69
2022/05/31 06:35:40;;;;;;;6.40;3.42;;;16.80;65.60;;;;;;5020911;28;20041;-69
2022/05/31 06:38:06;;;;;;;7.15;3.38;;;17.00;64.60;;;;;;5015695;28;20030;-69
2022/05/31 06:40:32;;;;;;;7.38;3.72;;;17.30;63.90;;;;;;5030048;28;20558;-69
2022/05/31 06:42:58;;;;;;;5.60;3.50;;;17.60;63.20;;;;;;5036189;28;20531;-69
2022/05/31 06:45:25;;;;;;;6.90;3.78;;;18.00;61.80;;;;;;5015135;28;20053;-68
2022/05/31 06:47:51;;;;;;;6.72;3.50;;;18.80;59.10;;;;;;5027626;28;20056;-68
2022/05/31 06:50:16;;;;;;;8.05;3.60;;;19.80;55.60;;;;;;5021896;28;20058;-69
2022/05/31 06:58:11;;;;;;;6.40;3.25;;;22.90;44.60;;;;;;5024360;28;20041;-69
2022/05/31 07:00:37;;;;;;;5.13;3.00;;;23.60;42.50;;;;;;5020648;28;20416;-69
2022/05/31 07:03:03;;;;;;;6.32;3.00;;;24.10;41.30;;;;;;5030439;28;20022;-69
2022/05/31 07:05:30;;;;;;;5.25;1.65;;;24.60;40.40;;;;;;5022953;28;20410;-69
2022/05/31 07:07:59;;;;;;;3.63;1.60;;;25.00;39.00;;;;;;5023048;28;20026;-69
2022/05/31 07:10:25;;;;;;;4.93;1.50;;;25.40;37.60;;;;;;5016445;28;20718;-69
2022/05/31 07:12:50;;;;;;;4.78;1.50;;;25.80;35.80;;;;;;5039120;28;20024;-69
2022/05/31 07:15:16;;;;;;;4.47;1.40;;;26.10;34.90;;;;;;5015477;28;20072;-70
2022/05/31 07:17:44;;;;;;;4.68;1.50;;;26.50;33.90;;;;;;5025647;28;20026;-69
2022/05/31 07:20:10;;;;;;;5.10;1.50;;;26.80;33.20;;;;;;5020637;28;20041;-68
2022/05/31 07:22:38;;;;;;;5.57;1.52;;;27.10;32.50;;;;;;5024951;28;20025;-69
2022/05/31 07:25:04;;;;;;;4.55;1.50;;;27.40;31.60;;;;;;5009713;28;20065;-69
2022/05/31 07:27:30;;;;;;;4.40;1.35;;;27.60;31.00;;;;;;5029370;28;20026;-69
2022/05/31 07:29:56;;;;;;;3.72;1.33;;;27.40;31.10;;;;;;5022079;28;20038;-69
2022/05/31 07:32:22;;;;;;;5.13;1.42;;;27.00;31.70;;;;;;5024252;28;20515;-69
2022/05/31 07:34:49;;;;;;;5.43;1.40;;;26.60;32.30;;;;;;5023405;28;20452;-69
2022/05/31 07:37:14;;;;;;;2.85;1.20;;;26.20;33.00;;;;;;5019332;28;20018;-69
2022/05/31 07:39:40;;;;;;;4.38;1.20;;;25.70;34.40;;;;;;5028165;28;20066;-69
2022/05/31 07:42:06;;;;;;;4.85;1.38;;;25.10;35.30;;;;;;5018051;28;20117;-68
2022/05/31 07:44:32;;;;;;;4.57;1.20;;;24.60;36.20;;;;;;5024258;28;20025;-69
2022/05/31 07:47:00;;;;;;;2.60;1.13;;;24.30;37.20;;;;;;5024031;28;20072;-69
2022/05/31 07:49:26;;;;;;;3.92;1.20;;;24.10;37.50;;;;;;5031722;28;20025;-68
2022/05/31 07:51:51;;;;;;;4.45;1.20;;;24.00;36.70;;;;;;5031615;28;20029;-69
2022/05/31 07:54:17;;;;;;;4.35;1.30;;;23.90;36.50;;;;;;5022276;28;20436;-69
2022/05/31 07:56:43;;;;;;;6.32;1.30;;;23.90;36.30;;;;;;5026567;28;20136;-69
2022/05/31 07:59:09;;;;;;;3.45;1.15;;;23.80;36.00;;;;;;5021248;28;20022;-69
2022/05/31 08:01:35;;;;;;;3.10;1.20;;;23.80;36.20;;;;;;5019967;28;20042;-68
2022/05/31 08:04:01;;;;;;;3.35;1.17;;;23.70;36.50;;;;;;5030640;28;20144;-68
2022/05/31 08:06:32;;;;;;;9.00;1.20;;;23.70;36.50;;;;;;5016670;28;20483;-68
2022/05/31 08:08:57;;;;;;;;;;;23.70;36.80;;;;;;5015869;28;20030;-68
2022/05/31 08:11:26;;;;;;;4.70;1.08;;;23.70;36.80;;;;;;5013913;28;19909;-68
2022/05/31 08:13:53;;;;;;;4.40;1.13;;;23.60;36.70;;;;;;5029988;28;20030;-68
2022/05/31 08:16:21;;;;;;;2.88;1.00;;;23.60;36.60;;;;;;5033799;28;20038;-68
2022/05/31 08:18:48;;;;;;;3.05;1.13;;;23.60;36.20;;;;;;5020439;28;20041;-68
2022/05/31 08:21:26;;;;;;;5.72;1.13;;;23.60;36.20;;;;;;5031836;28;20407;-69
2022/05/31 08:23:53;;;;;;;2.78;1.10;;;23.60;36.30;;;;;;5019546;28;20037;-69
2022/05/31 08:26:18;;;;;;;2.30;0.90;;;23.70;36.10;;;;;;5027240;28;20045;-68
2022/05/31 08:28:44;;;;;;;2.58;1.02;;;23.80;35.20;;;;;;5023683;28;20033;-68
2022/05/31 08:31:12;;;;;;;2.35;0.90;;;23.80;34.50;;;;;;5013987;28;20036;-68
2022/05/31 08:33:39;;;;;;;4.15;1.05;;;23.80;33.00;;;;;;5031828;28;20051;-68
2022/05/31 08:36:07;;;;;;;4.32;0.98;;;23.90;33.10;;;;;;5026826;28;20116;-68
2022/05/31 08:38:33;;;;;;;3.17;0.90;;;24.00;32.70;;;;;;5023948;28;20045;-68
2022/05/31 08:41:09;;;;;;;3.65;0.93;;;24.10;32.50;;;;;;5025749;28;20804;-68
2022/05/31 08:43:47;;;;;;;4.30;1.20;;;24.30;31.80;;;;;;5030885;28;20047;-68
2022/05/31 08:46:32;;;;;;;3.03;1.17;;;24.50;31.10;;;;;;5026354;28;20026;-68
2022/05/31 08:53:03;;;;;;;4.05;1.00;;;24.90;30.40;;;;;;5023278;28;20068;-68
2022/05/31 08:58:56;;;;;;;3.15;1.10;;;25.50;30.00;;;;;;4993521;28;20053;-68
2022/05/31 09:01:29;;;;;;;5.18;1.10;;;25.70;30.00;;;;;;4997212;28;20110;-68
2022/05/31 09:04:05;;;;;;;3.63;1.10;;;25.90;30.00;;;;;;5007514;28;20116;-68
2022/05/31 09:06:46;;;;;;;4.50;1.10;;;26.10;29.70;;;;;;5004567;28;20494;-68
2022/05/31 09:09:26;;;;;;;3.40;1.00;;;26.30;29.20;;;;;;4996827;28;20517;-68
2022/05/31 09:12:26;;;;;;;48.13;2.45;;;26.60;28.30;;;;;;4994904;28;20425;-68
2022/05/31 09:15:19;;;;;;;2.35;0.70;;;26.80;27.80;;;;;;5005766;28;20528;-68
2022/05/31 09:18:07;;;;;;;3.08;0.82;;;27.10;27.20;;;;;;5000138;28;20060;-68
2022/05/31 09:20:38;;;;;;;4.05;0.90;;;27.50;26.70;;;;;;5005647;28;20026;-68
2022/05/31 09:23:04;;;;;;;5.60;0.98;;;27.80;26.90;;;;;;5003696;28;20048;-69
2022/05/31 09:25:39;;;;;;;7.72;1.20;;;28.20;26.60;;;;;;4997394;28;20034;-68
2022/05/31 09:28:15;;;;;;;8.55;1.20;;;28.50;25.90;;;;;;4998033;28;20529;-68
2022/05/31 09:30:43;;;;;;;4.85;1.05;;;28.90;25.60;;;;;;5016441;28;20468;-68
2022/05/31 09:33:12;;;;;;;6.50;1.00;;;29.30;25.50;;;;;;5029028;28;20037;-68
2022/05/31 09:35:57;;;;;;;3.47;0.90;;;29.70;24.30;;;;;;5025012;28;20075;-69
2022/05/31 09:38:32;;;;;;;6.18;1.00;;;30.10;23.60;;;;;;5024120;28;20476;-69
2022/05/31 09:41:06;;;;;;;4.07;0.90;;;30.50;23.60;;;;;;5021211;28;20060;-68
2022/05/31 09:43:38;;;;;;;4.15;1.10;;;30.80;22.90;;;;;;5015363;28;20056;-69
2022/05/31 09:46:11;;;;;;;4.38;0.93;;;31.30;22.80;;;;;;5013785;28;20519;-68
2022/05/31 09:48:48;;;;;;;4.57;0.82;;;31.70;22.40;;;;;;5012793;28;20034;-69
2022/05/31 09:51:40;;;;;;;3.20;0.80;;;32.00;21.50;;;;;;5020810;28;20033;-69
2022/05/31 09:57:06;;;;;;;3.65;1.00;;;32.80;20.40;;;;;;5015372;28;20037;-68
2022/05/31 09:59:47;;;;;;;5.95;1.00;;;33.20;20.10;;;;;;5024465;28;20091;-68
2022/05/31 10:02:35;;;;;;;3.92;0.73;;;33.60;19.70;;;;;;5029037;28;20029;-68
2022/05/31 10:05:10;;;;;;;3.58;1.00;;;34.10;19.20;;;;;;5013828;28;20038;-68
2022/05/31 10:07:38;;;;;;;4.57;0.80;;;34.40;18.80;;;;;;5016789;28;20033;-68
2022/05/31 10:10:09;;;;;;;3.35;0.90;;;34.80;18.60;;;;;;5026089;28;20018;-68
2022/05/31 10:12:35;;;;;;;3.47;0.80;;;35.20;18.40;;;;;;5028129;28;20057;-68
2022/05/31 10:15:03;;;;;;;4.72;0.80;;;35.50;18.20;;;;;;5030630;28;20065;-68
2022/05/31 10:17:37;;;;;;;3.30;0.80;;;35.80;17.70;;;;;;5022505;28;20021;-68
2022/05/31 10:20:24;;;;;;;3.28;0.95;;;36.30;17.40;;;;;;5024244;28;20033;-69
2022/05/31 10:22:49;;;;;;;3.67;0.80;;;36.80;17.10;;;;;;5021369;28;20033;-68
2022/05/31 10:25:39;;;;;;;3.95;0.90;;;37.20;17.10;;;;;;5014491;28;20076;-69
2022/05/31 10:28:12;;;;;;;3.10;0.90;;;37.60;16.00;;;;;;5011885;28;20113;-68
2022/05/31 10:30:39;;;;;;;4.05;0.90;;;37.50;16.10;;;;;;5020611;28;20277;-68
2022/05/31 10:33:16;;;;;;;3.20;0.75;;;37.60;16.10;;;;;;5031411;28;20030;-68
2022/05/31 10:35:43;;;;;;;4.30;0.80;;;35.40;17.60;;;;;;5016331;28;20069;-68
2022/05/31 10:38:18;;;;;;;4.95;1.00;;;34.40;18.00;;;;;;5024740;28;20160;-68
2022/05/31 10:41:00;;;;;;;3.80;0.90;;;33.00;19.00;;;;;;5013014;28;20535;-67
2022/05/31 10:43:56;;;;;;;3.95;1.00;;;33.20;18.90;;;;;;5024548;28;20056;-68
2022/05/31 10:46:32;;;;;;;4.45;0.93;;;35.00;17.60;;;;;;5022986;28;20029;-69
2022/05/31 10:49:02;;;;;;;3.92;0.70;;;35.20;17.70;;;;;;5009464;28;20179;-68
2022/05/31 10:51:28;;;;;;;;;;;35.80;17.20;;;;;;5020051;28;20075;-68
2022/05/31 10:54:07;;;;;;;3.15;0.90;;;34.20;18.10;;;;;;5013083;28;20005;-68
2022/05/31 10:56:57;;;;;;;2.72;0.98;;;34.80;17.80;;;;;;5012290;28;20079;-68
2022/05/31 10:59:35;;;;;;;4.07;0.80;;;36.20;17.10;;;;;;5012869;28;20030;-68
2022/05/31 11:02:04;;;;;;;2.78;0.70;;;37.50;16.10;;;;;;5033850;28;20021;-68
2022/05/31 11:05:03;;;;;;;3.83;0.80;;;38.30;15.40;;;;;;5024389;28;20030;-69
2022/05/31 11:07:31;;;;;;;3.17;0.93;;;39.00;14.50;;;;;;5010746;28;20046;-68
2022/05/31 11:13:05;;;;;;;3.05;0.80;;;39.40;13.60;;;;;;5027528;28;20404;-68
2022/05/31 11:15:49;;;;;;;4.70;0.88;;;39.70;14.20;;;;;;5021899;28;20037;-68
2022/05/31 11:18:38;;;;;;;2.42;0.80;;;38.10;15.40;;;;;;5013306;28;20125;-67
2022/05/31 11:21:07;;;;;;;3.58;0.90;;;35.40;17.40;;;;;;5012671;28;20888;-68
2022/05/31 11:23:39;;;;;;;3.80;0.90;;;36.70;16.50;;;;;;5016548;28;20030;-68
2022/05/31 11:26:39;;;;;;;3.30;0.80;;;36.20;16.40;;;;;;5012022;28;20037;-67
2022/05/31 11:29:14;;;;;;;3.67;0.80;;;34.00;18.50;;;;;;5013072;28;20508;-67
2022/05/31 11:31:58;;;;;;;2.47;0.80;;;33.30;19.20;;;;;;5023660;28;20041;-67
2022/05/31 11:34:37;;;;;;;3.55;0.90;;;32.60;18.90;;;;;;5012034;28;20399;-69
2022/05/31 11:37:20;;;;;;;4.00;0.98;;;31.30;20.20;;;;;;5014447;28;20125;-67
2022/05/31 11:40:15;;;;;;;3.92;0.95;;;30.20;21.90;;;;;;5027205;28;20038;-67
2022/05/31 11:43:00;;;;;;;3.80;1.15;;;31.70;20.40;;;;;;5030172;28;20056;-67
2022/05/31 11:45:38;;;;;;;3.15;0.90;;;35.00;18.50;;;;;;5022966;28;20014;-68
2022/05/31 11:48:30;;;;;;;2.35;0.70;;;36.10;17.30;;;;;;5023089;28;20040;-68
2022/05/31 11:51:13;;;;;;;4.70;0.90;;;37.30;16.70;;;;;;5023393;28;20084;-68
2022/05/31 11:54:21;;;;;;;4.95;1.00;;;38.40;16.00;;;;;;5018129;28;20076;-67
2022/05/31 11:57:04;;;;;;;2.78;0.80;;;39.30;15.30;;;;;;5016832;28;20042;-68
2022/05/31 11:59:33;;;;;;;3.03;0.80;;;40.10;14.40;;;;;;5021151;28;20048;-68
2022/05/31 12:02:11;;;;;;;3.00;0.70;;;40.60;13.50;;;;;;5025842;28;20087;-68
2022/05/31 12:04:44;;;;;;;3.78;0.80;;;40.80;13.60;;;;;;5036942;28;20404;-68
2022/05/31 12:07:14;;;;;;;5.38;0.90;;;41.20;13.60;;;;;;5026926;28;20029;-68
2022/05/31 12:10:01;;;;;;;4.07;0.95;;;41.60;13.10;;;;;;5009209;28;20054;-68
2022/05/31 12:12:34;;;;;;;4.20;1.10;;;40.60;13.50;;;;;;5042920;28;20086;-67
2022/05/31 12:15:07;;;;;;;3.05;0.85;;;38.50;14.70;;;;;;5030011;28;20033;-68
2022/05/31 12:18:01;;;;;;;4.60;0.90;;;37.00;15.60;;;;;;5020474;28;20396;-67
2022/05/31 12:20:30;;;;;;;4.47;0.82;;;35.30;16.80;;;;;;5032527;28;20026;-68
2022/05/31 12:23:24;;;;;;;5.85;1.02;;;35.20;17.30;;;;;;5026037;28;20037;-67
2022/05/31 12:25:55;;;;;;;3.55;0.93;;;34.90;17.60;;;;;;5031468;28;20522;-68
2022/05/31 12:28:39;;;;;;;3.60;0.70;;;35.30;17.10;;;;;;5038748;28;20085;-67
2022/05/31 12:31:04;;;;;;;3.50;0.80;;;34.90;17.80;;;;;;5026264;28;20107;-67
2022/05/31 12:33:46;;;;;;;2.78;0.70;;;34.50;18.20;;;;;;5028074;28;20030;-67
2022/05/31 12:36:17;;;;;;;3.10;0.80;;;35.10;17.60;;;;;;5026896;28;20041;-67
2022/05/31 12:39:06;;;;;;;2.78;0.70;;;36.00;16.90;;;;;;5021324;28;20100;-67
2022/05/31 12:41:34;;;;;;;4.63;0.90;;;34.40;17.80;;;;;;5031798;28;20033;-67
2022/05/31 12:44:01;;;;;;;2.95;0.85;;;33.80;18.70;;;;;;5016007;28;20049;-67
2022/05/31 12:46:32;;;;;;;4.15;1.00;;;32.80;19.50;;;;;;5029343;28;20092;-67
2022/05/31 12:49:02;;;;;;;4.22;0.98;;;31.80;20.50;;;;;;5026945;28;20030;-67
2022/05/31 12:51:28;;;;;;;3.05;0.80;;;31.20;21.40;;;;;;5038021;28;20021;-67
2022/05/31 12:53:57;;;;;;;4.45;0.85;;;32.70;19.40;;;;;;5031281;28;20038;-67
2022/05/31 12:56:34;;;;;;;3.40;1.02;;;34.10;18.30;;;;;;5027163;28;20049;-67
2022/05/31 12:59:01;;;;;;;3.92;1.10;;;34.10;18.90;;;;;;5025451;28;20038;-67
2022/05/31 13:01:27;;;;;;;4.72;0.82;;;33.00;19.50;;;;;;5013945;28;20040;-67
2022/05/31 13:04:26;;;;;;;5.20;1.02;;;32.20;20.00;;;;;;5035176;28;20030;-67
2022/05/31 13:07:18;;;;;;;2.72;0.90;;;31.40;20.80;;;;;;5033381;28;20048;-67
2022/05/31 13:09:46;;;;;;;2.67;1.00;;;30.60;21.10;;;;;;5030613;28;20036;-67
2022/05/31 13:21:05;;;;;;;5.25;1.23;;;29.00;23.90;;;;;;5025265;28;20044;-67
2022/05/31 13:23:44;;;;;;;11.32;1.05;;;28.70;24.20;;;;;;5024602;28;20112;-67
2022/05/31 13:26:18;;;;;;;3.15;1.10;;;28.70;24.20;;;;;;5026867;28;20037;-67
2022/05/31 13:29:07;;;;;;;6.05;1.23;;;29.20;24.20;;;;;;5023508;28;20026;-67
2022/05/31 13:31:50;;;;;;;5.53;1.10;;;29.30;23.80;;;;;;5025436;28;20037;-67
2022/05/31 13:34:38;;;;;;;4.20;1.35;;;29.20;23.60;;;;;;5012060;28;20235;-67
2022/05/31 13:37:16;;;;;;;4.55;1.10;;;29.00;24.20;;;;;;5027645;28;20041;-67
2022/05/31 13:39:44;;;;;;;3.78;1.00;;;29.10;24.80;;;;;;5025653;28;20054;-67
2022/05/31 13:42:37;;;;;;;4.97;1.00;;;29.10;24.30;;;;;;5026827;28;20033;-67
2022/05/31 13:45:10;;;;;;;4.82;1.20;;;29.00;24.40;;;;;;5022519;28;20060;-67